Lake Minchumina, Alaska
Current Conditions -  °F | °C
As of 11:07 PM on Saturday 20 Dec 2014 (Local Time) from PAFS Reporting Station
Light Snow Light Snow  
Wind Chill: -9°   Ceiling: 100
Heat Index: -9°   Visibility: 10mi
Dew Point: -15°   Wind: 0mph
Humidity: 77%   Direction: NA
Pressure: 29.1"   Gusts: NA
Location:  63.89°N, 152.36°W
Report Text: PAFS 210807Z AUTO 00000KT 10SM -SN BKN001 BKN013 M23/M26 A2910 RMK AO2 TSNO BKN V SCT SNB02 P0000 $
Loading
Personal Weather Stations






























Interactive Weather Map New forecast layout! Learn more

10-Day Weather Forecast

Advertisements
Track Severe Weather on mobile